sensor_id;sensor_type;location;lat;lon;timestamp;P1;durP1;ratioP1;P2;durP2;ratioP2
39772;SDS011;25451;51.960;6.250;2023-05-10T00:01:18;3.33;;;1.90;;
39772;SDS011;25451;51.960;6.250;2023-05-10T00:03:43;3.33;;;1.83;;
39772;SDS011;25451;51.960;6.250;2023-05-10T00:06:09;3.13;;;1.77;;
39772;SDS011;25451;51.960;6.250;2023-05-10T00:08:34;3.78;;;1.95;;
39772;SDS011;25451;51.960;6.250;2023-05-10T00:10:59;4.43;;;2.00;;
39772;SDS011;25451;51.960;6.250;2023-05-10T00:13:25;3.90;;;2.23;;
39772;SDS011;25451;51.960;6.250;2023-05-10T00:15:50;4.50;;;2.13;;
39772;SDS011;25451;51.960;6.250;2023-05-10T00:18:15;6.23;;;2.60;;
39772;SDS011;25451;51.960;6.250;2023-05-10T00:20:41;5.60;;;3.10;;
39772;SDS011;25451;51.960;6.250;2023-05-10T00:23:06;5.15;;;2.83;;
39772;SDS011;25451;51.960;6.250;2023-05-10T00:25:31;7.22;;;3.30;;
39772;SDS011;25451;51.960;6.250;2023-05-10T00:27:57;5.67;;;3.30;;
39772;SDS011;25451;51.960;6.250;2023-05-10T00:30:22;6.60;;;3.47;;
39772;SDS011;25451;51.960;6.250;2023-05-10T00:32:48;6.57;;;3.40;;
39772;SDS011;25451;51.960;6.250;2023-05-10T00:35:14;7.28;;;3.67;;
39772;SDS011;25451;51.960;6.250;2023-05-10T00:37:40;7.68;;;3.50;;
39772;SDS011;25451;51.960;6.250;2023-05-10T00:40:06;5.40;;;3.30;;
39772;SDS011;25451;51.960;6.250;2023-05-10T00:42:32;7.60;;;3.85;;
39772;SDS011;25451;51.960;6.250;2023-05-10T00:44:57;8.23;;;3.73;;
39772;SDS011;25451;51.960;6.250;2023-05-10T00:47:22;8.23;;;4.10;;
39772;SDS011;25451;51.960;6.250;2023-05-10T00:49:48;7.07;;;3.40;;
39772;SDS011;25451;51.960;6.250;2023-05-10T00:52:14;7.27;;;3.13;;
39772;SDS011;25451;51.960;6.250;2023-05-10T00:54:40;5.65;;;3.13;;
39772;SDS011;25451;51.960;6.250;2023-05-10T00:57:05;6.77;;;3.17;;
39772;SDS011;25451;51.960;6.250;2023-05-10T00:59:30;8.10;;;3.77;;
39772;SDS011;25451;51.960;6.250;2023-05-10T01:01:56;6.03;;;3.38;;
39772;SDS011;25451;51.960;6.250;2023-05-10T01:04:22;6.37;;;3.53;;
39772;SDS011;25451;51.960;6.250;2023-05-10T01:06:50;6.68;;;3.53;;
39772;SDS011;25451;51.960;6.250;2023-05-10T01:09:16;7.47;;;3.83;;
39772;SDS011;25451;51.960;6.250;2023-05-10T01:11:43;7.03;;;3.92;;
39772;SDS011;25451;51.960;6.250;2023-05-10T01:14:08;7.63;;;4.20;;
39772;SDS011;25451;51.960;6.250;2023-05-10T01:16:36;7.50;;;4.10;;
39772;SDS011;25451;51.960;6.250;2023-05-10T01:19:06;8.38;;;4.13;;
39772;SDS011;25451;51.960;6.250;2023-05-10T01:30:14;13.45;;;5.55;;
39772;SDS011;25451;51.960;6.250;2023-05-10T01:39:04;18.63;;;7.72;;
39772;SDS011;25451;51.960;6.250;2023-05-10T01:41:47;14.88;;;6.50;;
39772;SDS011;25451;51.960;6.250;2023-05-10T01:47:13;18.98;;;8.02;;
39772;SDS011;25451;51.960;6.250;2023-05-10T01:49:49;20.95;;;8.43;;
39772;SDS011;25451;51.960;6.250;2023-05-10T01:52:18;20.20;;;8.32;;
39772;SDS011;25451;51.960;6.250;2023-05-10T01:55:04;23.98;;;9.77;;
39772;SDS011;25451;51.960;6.250;2023-05-10T01:57:32;22.90;;;10.02;;
39772;SDS011;25451;51.960;6.250;2023-05-10T02:00:01;25.75;;;10.20;;
39772;SDS011;25451;51.960;6.250;2023-05-10T02:02:28;22.92;;;10.00;;
39772;SDS011;25451;51.960;6.250;2023-05-10T02:04:58;27.48;;;10.93;;
39772;SDS011;25451;51.960;6.250;2023-05-10T02:07:24;27.58;;;11.60;;
39772;SDS011;25451;51.960;6.250;2023-05-10T02:09:51;27.25;;;11.98;;
39772;SDS011;25451;51.960;6.250;2023-05-10T02:12:17;31.93;;;11.80;;
39772;SDS011;25451;51.960;6.250;2023-05-10T02:14:43;31.13;;;11.63;;
39772;SDS011;25451;51.960;6.250;2023-05-10T02:17:10;32.55;;;13.18;;
39772;SDS011;25451;51.960;6.250;2023-05-10T02:19:37;32.33;;;12.82;;
39772;SDS011;25451;51.960;6.250;2023-05-10T02:22:05;31.10;;;12.43;;
39772;SDS011;25451;51.960;6.250;2023-05-10T02:24:33;32.88;;;12.20;;
39772;SDS011;25451;51.960;6.250;2023-05-10T02:27:01;30.27;;;12.55;;
39772;SDS011;25451;51.960;6.250;2023-05-10T02:29:28;32.83;;;12.75;;
39772;SDS011;25451;51.960;6.250;2023-05-10T02:31:56;34.03;;;13.38;;
39772;SDS011;25451;51.960;6.250;2023-05-10T02:34:23;33.75;;;13.25;;
39772;SDS011;25451;51.960;6.250;2023-05-10T02:36:51;32.33;;;12.65;;
39772;SDS011;25451;51.960;6.250;2023-05-10T02:39:18;30.00;;;12.60;;
39772;SDS011;25451;51.960;6.250;2023-05-10T02:41:44;31.63;;;13.07;;
39772;SDS011;25451;51.960;6.250;2023-05-10T02:44:11;28.15;;;11.75;;
39772;SDS011;25451;51.960;6.250;2023-05-10T02:46:39;33.13;;;12.45;;
39772;SDS011;25451;51.960;6.250;2023-05-10T02:49:05;31.97;;;12.67;;
39772;SDS011;25451;51.960;6.250;2023-05-10T02:51:31;31.00;;;12.70;;
39772;SDS011;25451;51.960;6.250;2023-05-10T02:54:43;31.20;;;12.00;;
39772;SDS011;25451;51.960;6.250;2023-05-10T02:56:53;34.67;;;12.68;;
39772;SDS011;25451;51.960;6.250;2023-05-10T02:59:22;30.88;;;13.20;;
39772;SDS011;25451;51.960;6.250;2023-05-10T03:01:48;28.93;;;12.23;;
39772;SDS011;25451;51.960;6.250;2023-05-10T03:04:13;31.07;;;12.70;;
39772;SDS011;25451;51.960;6.250;2023-05-10T03:06:39;28.93;;;11.73;;
39772;SDS011;25451;51.960;6.250;2023-05-10T03:09:04;30.67;;;12.27;;
39772;SDS011;25451;51.960;6.250;2023-05-10T03:14:29;32.17;;;12.20;;
39772;SDS011;25451;51.960;6.250;2023-05-10T03:16:56;31.70;;;12.35;;
39772;SDS011;25451;51.960;6.250;2023-05-10T03:19:29;28.35;;;11.35;;
39772;SDS011;25451;51.960;6.250;2023-05-10T03:21:59;30.95;;;11.52;;
39772;SDS011;25451;51.960;6.250;2023-05-10T03:24:28;30.23;;;11.57;;
39772;SDS011;25451;51.960;6.250;2023-05-10T03:26:55;33.05;;;11.73;;
39772;SDS011;25451;51.960;6.250;2023-05-10T03:29:22;32.22;;;12.35;;
39772;SDS011;25451;51.960;6.250;2023-05-10T03:31:50;29.63;;;11.55;;
39772;SDS011;25451;51.960;6.250;2023-05-10T03:34:15;30.60;;;12.20;;
39772;SDS011;25451;51.960;6.250;2023-05-10T03:36:42;26.50;;;10.57;;
39772;SDS011;25451;51.960;6.250;2023-05-10T03:39:07;27.88;;;11.48;;
39772;SDS011;25451;51.960;6.250;2023-05-10T03:41:32;31.42;;;12.43;;
39772;SDS011;25451;51.960;6.250;2023-05-10T03:43:58;28.13;;;11.57;;
39772;SDS011;25451;51.960;6.250;2023-05-10T03:46:23;28.87;;;11.83;;
39772;SDS011;25451;51.960;6.250;2023-05-10T03:48:48;29.77;;;11.60;;
39772;SDS011;25451;51.960;6.250;2023-05-10T03:51:14;28.57;;;11.20;;
39772;SDS011;25451;51.960;6.250;2023-05-10T03:53:39;36.93;;;13.40;;
39772;SDS011;25451;51.960;6.250;2023-05-10T03:56:04;32.10;;;12.57;;
39772;SDS011;25451;51.960;6.250;2023-05-10T03:58:29;35.60;;;13.90;;
39772;SDS011;25451;51.960;6.250;2023-05-10T04:00:55;34.83;;;14.17;;
39772;SDS011;25451;51.960;6.250;2023-05-10T04:03:20;38.17;;;14.93;;
39772;SDS011;25451;51.960;6.250;2023-05-10T04:05:46;37.00;;;14.93;;
39772;SDS011;25451;51.960;6.250;2023-05-10T04:08:11;35.13;;;14.03;;
39772;SDS011;25451;51.960;6.250;2023-05-10T04:10:36;35.43;;;13.90;;
39772;SDS011;25451;51.960;6.250;2023-05-10T04:13:02;36.87;;;15.10;;
39772;SDS011;25451;51.960;6.250;2023-05-10T04:15:27;38.03;;;14.83;;
39772;SDS011;25451;51.960;6.250;2023-05-10T04:17:52;38.40;;;14.00;;
39772;SDS011;25451;51.960;6.250;2023-05-10T04:20:18;37.22;;;14.80;;
39772;SDS011;25451;51.960;6.250;2023-05-10T04:22:43;37.13;;;14.20;;
39772;SDS011;25451;51.960;6.250;2023-05-10T04:25:09;36.60;;;14.57;;
39772;SDS011;25451;51.960;6.250;2023-05-10T04:27:34;39.30;;;14.97;;
39772;SDS011;25451;51.960;6.250;2023-05-10T04:29:59;40.73;;;15.80;;
39772;SDS011;25451;51.960;6.250;2023-05-10T04:32:25;38.47;;;14.90;;
39772;SDS011;25451;51.960;6.250;2023-05-10T04:34:50;37.70;;;14.80;;
39772;SDS011;25451;51.960;6.250;2023-05-10T04:37:16;39.53;;;14.88;;
39772;SDS011;25451;51.960;6.250;2023-05-10T04:39:41;40.37;;;14.53;;
39772;SDS011;25451;51.960;6.250;2023-05-10T04:42:07;34.63;;;13.40;;
39772;SDS011;25451;51.960;6.250;2023-05-10T04:44:32;37.40;;;14.27;;
39772;SDS011;25451;51.960;6.250;2023-05-10T04:46:57;38.23;;;14.33;;
39772;SDS011;25451;51.960;6.250;2023-05-10T04:49:23;35.53;;;13.47;;
39772;SDS011;25451;51.960;6.250;2023-05-10T04:51:48;37.97;;;14.20;;
39772;SDS011;25451;51.960;6.250;2023-05-10T04:54:13;38.13;;;13.67;;
39772;SDS011;25451;51.960;6.250;2023-05-10T04:56:39;40.43;;;14.50;;
39772;SDS011;25451;51.960;6.250;2023-05-10T04:59:04;39.30;;;14.23;;
39772;SDS011;25451;51.960;6.250;2023-05-10T05:01:29;41.00;;;14.37;;
39772;SDS011;25451;51.960;6.250;2023-05-10T05:03:55;39.85;;;14.25;;
39772;SDS011;25451;51.960;6.250;2023-05-10T05:06:20;40.75;;;13.65;;
39772;SDS011;25451;51.960;6.250;2023-05-10T05:08:46;38.57;;;14.13;;
39772;SDS011;25451;51.960;6.250;2023-05-10T05:11:11;37.50;;;14.20;;
39772;SDS011;25451;51.960;6.250;2023-05-10T05:13:37;38.50;;;13.80;;
39772;SDS011;25451;51.960;6.250;2023-05-10T05:16:02;39.13;;;14.27;;
39772;SDS011;25451;51.960;6.250;2023-05-10T05:18:28;34.38;;;14.00;;
39772;SDS011;25451;51.960;6.250;2023-05-10T05:20:53;33.40;;;13.00;;
39772;SDS011;25451;51.960;6.250;2023-05-10T05:23:18;37.47;;;13.73;;
39772;SDS011;25451;51.960;6.250;2023-05-10T05:25:45;34.10;;;12.95;;
39772;SDS011;25451;51.960;6.250;2023-05-10T05:28:11;38.15;;;13.93;;
39772;SDS011;25451;51.960;6.250;2023-05-10T05:30:36;34.25;;;13.68;;
39772;SDS011;25451;51.960;6.250;2023-05-10T05:33:01;36.63;;;12.90;;
39772;SDS011;25451;51.960;6.250;2023-05-10T05:35:27;38.23;;;13.87;;
39772;SDS011;25451;51.960;6.250;2023-05-10T05:37:52;35.37;;;13.47;;
39772;SDS011;25451;51.960;6.250;2023-05-10T05:40:17;31.87;;;12.77;;
39772;SDS011;25451;51.960;6.250;2023-05-10T05:42:42;31.37;;;13.07;;
39772;SDS011;25451;51.960;6.250;2023-05-10T05:45:08;29.10;;;12.03;;
39772;SDS011;25451;51.960;6.250;2023-05-10T05:47:37;34.33;;;13.57;;
39772;SDS011;25451;51.960;6.250;2023-05-10T05:50:03;30.80;;;12.50;;
39772;SDS011;25451;51.960;6.250;2023-05-10T05:52:28;34.20;;;12.57;;
39772;SDS011;25451;51.960;6.250;2023-05-10T05:54:53;28.13;;;11.57;;
39772;SDS011;25451;51.960;6.250;2023-05-10T05:57:19;31.27;;;12.35;;
39772;SDS011;25451;51.960;6.250;2023-05-10T05:59:44;30.27;;;12.03;;
39772;SDS011;25451;51.960;6.250;2023-05-10T06:02:10;30.70;;;12.60;;
39772;SDS011;25451;51.960;6.250;2023-05-10T06:04:35;34.45;;;12.65;;
39772;SDS011;25451;51.960;6.250;2023-05-10T06:07:01;33.87;;;12.43;;
39772;SDS011;25451;51.960;6.250;2023-05-10T06:09:26;34.23;;;12.90;;
39772;SDS011;25451;51.960;6.250;2023-05-10T06:11:51;37.47;;;13.43;;
39772;SDS011;25451;51.960;6.250;2023-05-10T06:14:17;37.50;;;13.37;;
39772;SDS011;25451;51.960;6.250;2023-05-10T06:16:42;36.50;;;13.07;;
39772;SDS011;25451;51.960;6.250;2023-05-10T06:19:07;35.93;;;13.53;;
39772;SDS011;25451;51.960;6.250;2023-05-10T06:21:33;33.40;;;12.80;;
39772;SDS011;25451;51.960;6.250;2023-05-10T06:23:58;39.17;;;13.63;;
39772;SDS011;25451;51.960;6.250;2023-05-10T06:26:23;35.97;;;13.30;;
39772;SDS011;25451;51.960;6.250;2023-05-10T06:28:48;33.47;;;12.70;;
39772;SDS011;25451;51.960;6.250;2023-05-10T06:31:14;38.90;;;14.03;;
39772;SDS011;25451;51.960;6.250;2023-05-10T06:33:39;37.33;;;13.27;;
39772;SDS011;25451;51.960;6.250;2023-05-10T06:36:05;37.70;;;13.27;;
39772;SDS011;25451;51.960;6.250;2023-05-10T06:38:30;40.03;;;12.73;;
39772;SDS011;25451;51.960;6.250;2023-05-10T06:40:55;32.87;;;13.60;;
39772;SDS011;25451;51.960;6.250;2023-05-10T06:43:21;41.28;;;13.50;;
39772;SDS011;25451;51.960;6.250;2023-05-10T06:45:47;34.95;;;13.48;;
39772;SDS011;25451;51.960;6.250;2023-05-10T06:48:12;41.33;;;14.00;;
39772;SDS011;25451;51.960;6.250;2023-05-10T06:50:38;35.65;;;13.15;;
39772;SDS011;25451;51.960;6.250;2023-05-10T06:53:03;40.42;;;14.40;;
39772;SDS011;25451;51.960;6.250;2023-05-10T06:55:28;42.63;;;14.00;;
39772;SDS011;25451;51.960;6.250;2023-05-10T06:57:54;39.63;;;14.40;;
39772;SDS011;25451;51.960;6.250;2023-05-10T07:00:19;38.23;;;14.43;;
39772;SDS011;25451;51.960;6.250;2023-05-10T07:02:45;37.03;;;14.38;;
39772;SDS011;25451;51.960;6.250;2023-05-10T07:05:10;31.20;;;13.40;;
39772;SDS011;25451;51.960;6.250;2023-05-10T07:07:36;35.95;;;14.02;;
39772;SDS011;25451;51.960;6.250;2023-05-10T07:10:02;34.58;;;13.50;;
39772;SDS011;25451;51.960;6.250;2023-05-10T07:12:27;33.87;;;13.73;;
39772;SDS011;25451;51.960;6.250;2023-05-10T07:14:53;34.20;;;13.77;;
39772;SDS011;25451;51.960;6.250;2023-05-10T07:17:18;32.77;;;14.03;;
39772;SDS011;25451;51.960;6.250;2023-05-10T07:19:43;35.00;;;13.83;;
39772;SDS011;25451;51.960;6.250;2023-05-10T07:22:09;33.13;;;12.98;;
39772;SDS011;25451;51.960;6.250;2023-05-10T07:24:34;37.00;;;14.00;;
39772;SDS011;25451;51.960;6.250;2023-05-10T07:27:00;36.27;;;13.80;;
39772;SDS011;25451;51.960;6.250;2023-05-10T07:29:25;31.63;;;13.00;;
39772;SDS011;25451;51.960;6.250;2023-05-10T07:31:51;32.78;;;13.85;;
39772;SDS011;25451;51.960;6.250;2023-05-10T07:34:16;29.13;;;12.90;;
39772;SDS011;25451;51.960;6.250;2023-05-10T07:36:41;31.63;;;13.37;;
39772;SDS011;25451;51.960;6.250;2023-05-10T07:39:07;31.47;;;12.70;;
39772;SDS011;25451;51.960;6.250;2023-05-10T07:41:32;36.57;;;13.20;;
39772;SDS011;25451;51.960;6.250;2023-05-10T07:43:58;30.67;;;13.27;;
39772;SDS011;25451;51.960;6.250;2023-05-10T07:46:23;30.30;;;13.00;;
39772;SDS011;25451;51.960;6.250;2023-05-10T07:48:48;28.30;;;12.13;;
39772;SDS011;25451;51.960;6.250;2023-05-10T07:51:14;29.53;;;11.47;;
39772;SDS011;25451;51.960;6.250;2023-05-10T07:53:39;28.30;;;10.90;;
39772;SDS011;25451;51.960;6.250;2023-05-10T07:56:23;28.30;;;12.53;;
39772;SDS011;25451;51.960;6.250;2023-05-10T07:58:50;28.17;;;12.50;;
39772;SDS011;25451;51.960;6.250;2023-05-10T08:01:16;27.70;;;12.05;;
39772;SDS011;25451;51.960;6.250;2023-05-10T08:03:41;31.07;;;11.13;;
39772;SDS011;25451;51.960;6.250;2023-05-10T08:06:07;29.67;;;11.40;;
39772;SDS011;25451;51.960;6.250;2023-05-10T08:08:32;30.97;;;11.20;;
39772;SDS011;25451;51.960;6.250;2023-05-10T08:10:57;30.70;;;12.17;;
39772;SDS011;25451;51.960;6.250;2023-05-10T08:13:22;31.60;;;11.20;;
39772;SDS011;25451;51.960;6.250;2023-05-10T08:15:48;29.80;;;11.47;;
39772;SDS011;25451;51.960;6.250;2023-05-10T08:18:13;27.83;;;10.63;;
39772;SDS011;25451;51.960;6.250;2023-05-10T08:20:38;24.80;;;10.90;;
39772;SDS011;25451;51.960;6.250;2023-05-10T08:23:04;30.63;;;11.87;;
39772;SDS011;25451;51.960;6.250;2023-05-10T08:25:31;30.50;;;11.60;;
39772;SDS011;25451;51.960;6.250;2023-05-10T08:27:56;31.50;;;12.52;;
39772;SDS011;25451;51.960;6.250;2023-05-10T08:30:21;30.40;;;12.60;;
39772;SDS011;25451;51.960;6.250;2023-05-10T08:32:47;31.60;;;12.67;;
39772;SDS011;25451;51.960;6.250;2023-05-10T08:35:12;30.33;;;12.00;;
39772;SDS011;25451;51.960;6.250;2023-05-10T08:37:37;34.03;;;12.77;;
39772;SDS011;25451;51.960;6.250;2023-05-10T08:40:03;33.92;;;12.93;;
39772;SDS011;25451;51.960;6.250;2023-05-10T08:42:30;31.60;;;12.53;;
39772;SDS011;25451;51.960;6.250;2023-05-10T08:44:59;30.73;;;12.40;;
39772;SDS011;25451;51.960;6.250;2023-05-10T08:47:26;27.40;;;11.90;;
39772;SDS011;25451;51.960;6.250;2023-05-10T08:49:52;28.45;;;11.13;;
39772;SDS011;25451;51.960;6.250;2023-05-10T08:52:19;26.88;;;11.05;;
39772;SDS011;25451;51.960;6.250;2023-05-10T08:54:46;25.08;;;9.95;;
39772;SDS011;25451;51.960;6.250;2023-05-10T08:57:12;24.98;;;10.50;;
39772;SDS011;25451;51.960;6.250;2023-05-10T08:59:37;26.83;;;11.10;;
39772;SDS011;25451;51.960;6.250;2023-05-10T09:02:04;26.65;;;10.82;;
39772;SDS011;25451;51.960;6.250;2023-05-10T09:04:29;29.83;;;10.83;;
39772;SDS011;25451;51.960;6.250;2023-05-10T09:06:55;28.92;;;10.98;;
39772;SDS011;25451;51.960;6.250;2023-05-10T09:09:21;25.97;;;11.30;;
39772;SDS011;25451;51.960;6.250;2023-05-10T09:11:48;29.70;;;11.55;;
39772;SDS011;25451;51.960;6.250;2023-05-10T09:14:14;26.63;;;10.90;;
39772;SDS011;25451;51.960;6.250;2023-05-10T09:16:40;26.30;;;11.60;;
39772;SDS011;25451;51.960;6.250;2023-05-10T09:19:06;29.92;;;11.98;;
39772;SDS011;25451;51.960;6.250;2023-05-10T09:21:33;30.73;;;12.45;;
39772;SDS011;25451;51.960;6.250;2023-05-10T09:24:02;27.92;;;12.00;;
39772;SDS011;25451;51.960;6.250;2023-05-10T09:26:28;30.00;;;12.27;;
39772;SDS011;25451;51.960;6.250;2023-05-10T09:28:55;29.43;;;12.43;;
39772;SDS011;25451;51.960;6.250;2023-05-10T09:31:21;27.73;;;11.80;;
39772;SDS011;25451;51.960;6.250;2023-05-10T09:33:48;25.58;;;11.82;;
39772;SDS011;25451;51.960;6.250;2023-05-10T09:36:14;30.30;;;11.57;;
39772;SDS011;25451;51.960;6.250;2023-05-10T09:38:47;25.38;;;10.93;;
39772;SDS011;25451;51.960;6.250;2023-05-10T09:41:17;25.80;;;10.50;;
39772;SDS011;25451;51.960;6.250;2023-05-10T09:43:55;22.65;;;9.68;;
39772;SDS011;25451;51.960;6.250;2023-05-10T09:46:21;21.92;;;9.50;;
39772;SDS011;25451;51.960;6.250;2023-05-10T09:48:50;22.77;;;9.40;;
39772;SDS011;25451;51.960;6.250;2023-05-10T09:51:21;26.47;;;10.23;;
39772;SDS011;25451;51.960;6.250;2023-05-10T09:53:48;26.38;;;9.85;;
39772;SDS011;25451;51.960;6.250;2023-05-10T09:56:32;26.10;;;10.57;;
39772;SDS011;25451;51.960;6.250;2023-05-10T09:59:03;24.35;;;10.00;;
39772;SDS011;25451;51.960;6.250;2023-05-10T10:01:28;23.40;;;9.85;;
39772;SDS011;25451;51.960;6.250;2023-05-10T10:03:54;26.10;;;9.80;;
39772;SDS011;25451;51.960;6.250;2023-05-10T10:06:19;27.07;;;10.17;;
39772;SDS011;25451;51.960;6.250;2023-05-10T10:08:45;22.02;;;9.43;;
39772;SDS011;25451;51.960;6.250;2023-05-10T10:11:11;22.85;;;9.32;;
39772;SDS011;25451;51.960;6.250;2023-05-10T10:13:36;23.33;;;9.23;;
39772;SDS011;25451;51.960;6.250;2023-05-10T10:16:02;20.75;;;8.50;;
39772;SDS011;25451;51.960;6.250;2023-05-10T10:18:27;16.10;;;7.20;;
39772;SDS011;25451;51.960;6.250;2023-05-10T10:20:55;19.20;;;7.03;;
39772;SDS011;25451;51.960;6.250;2023-05-10T10:23:21;17.00;;;7.55;;
39772;SDS011;25451;51.960;6.250;2023-05-10T10:25:46;17.45;;;7.03;;
39772;SDS011;25451;51.960;6.250;2023-05-10T10:30:52;17.85;;;7.30;;
39772;SDS011;25451;51.960;6.250;2023-05-10T10:36:22;13.57;;;6.47;;
39772;SDS011;25451;51.960;6.250;2023-05-10T10:50:06;10.07;;;4.63;;
39772;SDS011;25451;51.960;6.250;2023-05-10T10:55:09;11.43;;;5.20;;
39772;SDS011;25451;51.960;6.250;2023-05-10T11:00:17;11.65;;;5.00;;
39772;SDS011;25451;51.960;6.250;2023-05-10T11:02:50;9.52;;;4.43;;
39772;SDS011;25451;51.960;6.250;2023-05-10T11:05:23;10.88;;;4.90;;
39772;SDS011;25451;51.960;6.250;2023-05-10T11:07:58;9.77;;;4.63;;
39772;SDS011;25451;51.960;6.250;2023-05-10T11:10:25;10.57;;;4.60;;
39772;SDS011;25451;51.960;6.250;2023-05-10T11:13:04;10.57;;;4.60;;
39772;SDS011;25451;51.960;6.250;2023-05-10T11:15:35;8.75;;;4.38;;
39772;SDS011;25451;51.960;6.250;2023-05-10T11:18:17;10.13;;;4.30;;
39772;SDS011;25451;51.960;6.250;2023-05-10T11:20:43;9.77;;;4.60;;
39772;SDS011;25451;51.960;6.250;2023-05-10T11:23:12;9.18;;;4.38;;
39772;SDS011;25451;51.960;6.250;2023-05-10T11:25:41;8.80;;;4.35;;
39772;SDS011;25451;51.960;6.250;2023-05-10T11:28:08;9.45;;;4.40;;
39772;SDS011;25451;51.960;6.250;2023-05-10T11:30:33;9.43;;;4.77;;
39772;SDS011;25451;51.960;6.250;2023-05-10T11:32:58;7.80;;;4.00;;
39772;SDS011;25451;51.960;6.250;2023-05-10T11:35:23;9.70;;;4.00;;
39772;SDS011;25451;51.960;6.250;2023-05-10T11:37:52;9.18;;;3.92;;
39772;SDS011;25451;51.960;6.250;2023-05-10T11:40:17;11.03;;;4.50;;
39772;SDS011;25451;51.960;6.250;2023-05-10T11:42:43;8.40;;;4.30;;
39772;SDS011;25451;51.960;6.250;2023-05-10T11:45:10;9.43;;;3.97;;
39772;SDS011;25451;51.960;6.250;2023-05-10T11:47:35;7.80;;;3.90;;
39772;SDS011;25451;51.960;6.250;2023-05-10T11:50:02;8.38;;;3.70;;
39772;SDS011;25451;51.960;6.250;2023-05-10T11:52:27;9.35;;;4.30;;
39772;SDS011;25451;51.960;6.250;2023-05-10T11:54:54;11.07;;;4.10;;
39772;SDS011;25451;51.960;6.250;2023-05-10T11:57:20;9.40;;;4.50;;
39772;SDS011;25451;51.960;6.250;2023-05-10T11:59:53;10.77;;;4.70;;
39772;SDS011;25451;51.960;6.250;2023-05-10T12:02:19;8.70;;;4.35;;
39772;SDS011;25451;51.960;6.250;2023-05-10T12:04:45;9.13;;;4.43;;
39772;SDS011;25451;51.960;6.250;2023-05-10T12:07:11;10.27;;;4.75;;
39772;SDS011;25451;51.960;6.250;2023-05-10T12:09:36;10.27;;;5.00;;
39772;SDS011;25451;51.960;6.250;2023-05-10T12:12:02;10.97;;;4.73;;
39772;SDS011;25451;51.960;6.250;2023-05-10T12:14:27;11.80;;;4.95;;
39772;SDS011;25451;51.960;6.250;2023-05-10T12:16:53;10.53;;;4.90;;
39772;SDS011;25451;51.960;6.250;2023-05-10T12:19:19;11.93;;;5.03;;
39772;SDS011;25451;51.960;6.250;2023-05-10T12:21:47;11.07;;;4.63;;
39772;SDS011;25451;51.960;6.250;2023-05-10T12:24:13;9.27;;;4.72;;
39772;SDS011;25451;51.960;6.250;2023-05-10T12:26:39;11.73;;;5.60;;
39772;SDS011;25451;51.960;6.250;2023-05-10T12:29:14;10.23;;;4.70;;
39772;SDS011;25451;51.960;6.250;2023-05-10T12:31:51;9.50;;;4.85;;
39772;SDS011;25451;51.960;6.250;2023-05-10T12:34:26;9.57;;;4.30;;
39772;SDS011;25451;51.960;6.250;2023-05-10T12:36:55;9.52;;;4.97;;
39772;SDS011;25451;51.960;6.250;2023-05-10T12:39:21;9.73;;;4.73;;
39772;SDS011;25451;51.960;6.250;2023-05-10T12:41:46;8.60;;;4.53;;
39772;SDS011;25451;51.960;6.250;2023-05-10T12:44:11;9.63;;;4.60;;
39772;SDS011;25451;51.960;6.250;2023-05-10T12:46:37;7.70;;;3.97;;
39772;SDS011;25451;51.960;6.250;2023-05-10T12:49:02;8.50;;;4.38;;
39772;SDS011;25451;51.960;6.250;2023-05-10T12:51:27;8.20;;;4.10;;
39772;SDS011;25451;51.960;6.250;2023-05-10T12:53:52;8.27;;;3.90;;
39772;SDS011;25451;51.960;6.250;2023-05-10T12:56:19;10.35;;;4.18;;
39772;SDS011;25451;51.960;6.250;2023-05-10T12:58:45;8.17;;;3.77;;
39772;SDS011;25451;51.960;6.250;2023-05-10T13:01:12;7.78;;;3.90;;
39772;SDS011;25451;51.960;6.250;2023-05-10T13:03:38;6.37;;;3.47;;
39772;SDS011;25451;51.960;6.250;2023-05-10T13:06:03;8.23;;;3.87;;
39772;SDS011;25451;51.960;6.250;2023-05-10T13:08:29;8.90;;;3.70;;
39772;SDS011;25451;51.960;6.250;2023-05-10T13:10:58;8.63;;;4.30;;
39772;SDS011;25451;51.960;6.250;2023-05-10T13:13:23;8.67;;;3.93;;
39772;SDS011;25451;51.960;6.250;2023-05-10T13:15:48;9.30;;;4.03;;
39772;SDS011;25451;51.960;6.250;2023-05-10T13:18:14;7.87;;;3.93;;
39772;SDS011;25451;51.960;6.250;2023-05-10T13:20:39;8.60;;;4.00;;
39772;SDS011;25451;51.960;6.250;2023-05-10T13:23:04;7.33;;;3.80;;
39772;SDS011;25451;51.960;6.250;2023-05-10T13:25:30;9.23;;;4.07;;
39772;SDS011;25451;51.960;6.250;2023-05-10T13:27:55;8.13;;;3.95;;
39772;SDS011;25451;51.960;6.250;2023-05-10T13:30:21;8.50;;;4.07;;
39772;SDS011;25451;51.960;6.250;2023-05-10T13:32:46;8.30;;;3.90;;
39772;SDS011;25451;51.960;6.250;2023-05-10T13:35:11;8.03;;;4.10;;
39772;SDS011;25451;51.960;6.250;2023-05-10T13:37:36;6.77;;;3.37;;
39772;SDS011;25451;51.960;6.250;2023-05-10T13:40:03;7.50;;;3.72;;
39772;SDS011;25451;51.960;6.250;2023-05-10T13:42:29;6.43;;;3.40;;
39772;SDS011;25451;51.960;6.250;2023-05-10T13:44:54;8.20;;;3.45;;
39772;SDS011;25451;51.960;6.250;2023-05-10T13:47:19;6.70;;;3.03;;
39772;SDS011;25451;51.960;6.250;2023-05-10T13:49:46;8.68;;;3.10;;
39772;SDS011;25451;51.960;6.250;2023-05-10T13:52:12;7.80;;;3.40;;
39772;SDS011;25451;51.960;6.250;2023-05-10T13:54:37;6.50;;;3.13;;
39772;SDS011;25451;51.960;6.250;2023-05-10T13:57:03;7.47;;;3.40;;
39772;SDS011;25451;51.960;6.250;2023-05-10T13:59:29;7.47;;;3.17;;
39772;SDS011;25451;51.960;6.250;2023-05-10T14:01:56;7.32;;;3.60;;
39772;SDS011;25451;51.960;6.250;2023-05-10T14:04:22;6.97;;;3.50;;
39772;SDS011;25451;51.960;6.250;2023-05-10T14:06:47;8.53;;;3.97;;
39772;SDS011;25451;51.960;6.250;2023-05-10T14:09:13;9.50;;;3.80;;
39772;SDS011;25451;51.960;6.250;2023-05-10T14:11:38;9.43;;;3.80;;
39772;SDS011;25451;51.960;6.250;2023-05-10T14:14:07;6.78;;;3.83;;
39772;SDS011;25451;51.960;6.250;2023-05-10T14:16:33;5.85;;;3.20;;
39772;SDS011;25451;51.960;6.250;2023-05-10T14:18:58;7.20;;;3.30;;
39772;SDS011;25451;51.960;6.250;2023-05-10T14:21:24;7.00;;;3.80;;
39772;SDS011;25451;51.960;6.250;2023-05-10T14:23:49;5.47;;;3.07;;
39772;SDS011;25451;51.960;6.250;2023-05-10T14:26:14;7.53;;;3.47;;
39772;SDS011;25451;51.960;6.250;2023-05-10T14:28:40;6.37;;;3.43;;
39772;SDS011;25451;51.960;6.250;2023-05-10T14:31:05;8.20;;;3.30;;
39772;SDS011;25451;51.960;6.250;2023-05-10T14:33:31;7.38;;;3.47;;
39772;SDS011;25451;51.960;6.250;2023-05-10T14:35:56;10.17;;;3.83;;
39772;SDS011;25451;51.960;6.250;2023-05-10T14:38:22;7.93;;;3.90;;
39772;SDS011;25451;51.960;6.250;2023-05-10T14:40:48;10.65;;;3.75;;
39772;SDS011;25451;51.960;6.250;2023-05-10T14:43:13;8.80;;;3.77;;
39772;SDS011;25451;51.960;6.250;2023-05-10T14:45:39;7.17;;;3.80;;
39772;SDS011;25451;51.960;6.250;2023-05-10T14:48:04;10.00;;;4.03;;
39772;SDS011;25451;51.960;6.250;2023-05-10T14:50:30;8.07;;;3.97;;
39772;SDS011;25451;51.960;6.250;2023-05-10T14:52:56;7.38;;;3.90;;
39772;SDS011;25451;51.960;6.250;2023-05-10T14:55:22;8.17;;;3.83;;
39772;SDS011;25451;51.960;6.250;2023-05-10T14:57:47;8.03;;;3.80;;
39772;SDS011;25451;51.960;6.250;2023-05-10T15:00:14;7.88;;;3.85;;
39772;SDS011;25451;51.960;6.250;2023-05-10T15:02:40;10.15;;;4.50;;
39772;SDS011;25451;51.960;6.250;2023-05-10T15:05:06;9.60;;;4.70;;
39772;SDS011;25451;51.960;6.250;2023-05-10T15:07:32;9.63;;;4.43;;
39772;SDS011;25451;51.960;6.250;2023-05-10T15:09:57;9.23;;;4.80;;